Time;durP1;ratioP1;P1;durP2;ratioP2;P2;SDS_P1;SDS_P2;PMS_P1;PMS_P2;Temp;Humidity;BMP_temperature;BMP_pressure;BME280_temperature;BME280_humidity;BME280_pressure;Samples;Min_cycle;Max_cycle;Signal;HPM_P1;HPM_P2
2022/12/16 00:01:47;;;;;;;16.40;7.72;;;1.40;96.50;;;;;;5025397;28;20431;-75
2022/12/16 00:04:12;;;;;;;13.98;7.50;;;1.30;96.50;;;;;;5056943;28;20404;-76
2022/12/16 00:06:38;;;;;;;11.85;6.65;;;1.30;96.50;;;;;;5072296;28;20428;-77
2022/12/16 00:09:03;;;;;;;13.57;7.80;;;1.20;96.50;;;;;;5072864;28;20048;-77
2022/12/16 00:11:31;;;;;;;13.77;7.03;;;1.20;96.50;;;;;;5055814;28;20036;-77
2022/12/16 00:13:57;;;;;;;12.05;6.75;;;1.10;96.50;;;;;;5072625;28;20033;-78
2022/12/16 00:16:22;;;;;;;15.57;8.40;;;1.10;96.50;;;;;;5072233;28;20047;-78
2022/12/16 00:18:48;;;;;;;14.18;7.65;;;1.10;96.50;;;;;;5072073;28;20044;-75
2022/12/16 00:21:17;;;;;;;14.20;7.05;;;1.10;96.50;;;;;;5071546;28;20120;-78
2022/12/16 00:23:43;;;;;;;13.68;6.93;;;1.10;96.50;;;;;;5072300;28;20047;-74
2022/12/16 00:26:10;;;;;;;18.63;8.30;;;1.00;96.50;;;;;;5072615;28;20040;-78
2022/12/16 00:28:36;;;;;;;14.88;7.03;;;1.00;96.50;;;;;;5055670;28;20048;-78
2022/12/16 00:31:03;;;;;;;11.93;7.20;;;0.90;96.50;;;;;;5072433;28;20044;-77
2022/12/16 00:33:29;;;;;;;17.23;7.45;;;0.90;96.50;;;;;;5055415;28;20041;-75
2022/12/16 00:35:55;;;;;;;11.68;6.10;;;0.90;96.50;;;;;;5051828;28;20512;-75
2022/12/16 00:38:22;;;;;;;12.68;6.70;;;0.80;96.50;;;;;;5035255;28;20067;-77
2022/12/16 00:40:48;;;;;;;16.60;7.50;;;0.80;96.50;;;;;;5051890;28;20042;-75
2022/12/16 00:43:14;;;;;;;14.75;6.45;;;0.80;96.50;;;;;;5035459;28;20040;-77
2022/12/16 00:45:40;;;;;;;12.48;6.18;;;0.80;96.50;;;;;;5035199;28;20477;-75
2022/12/16 00:48:06;;;;;;;12.32;5.55;;;0.80;96.50;;;;;;5051213;28;20048;-77
2022/12/16 00:50:32;;;;;;;12.05;5.57;;;0.70;96.50;;;;;;5044955;28;20071;-77
2022/12/16 00:52:58;;;;;;;9.95;5.20;;;0.70;96.50;;;;;;5070801;28;20087;-77
2022/12/16 00:55:24;;;;;;;11.52;5.85;;;0.70;96.40;;;;;;5054218;28;20036;-74
2022/12/16 00:57:49;;;;;;;13.55;6.38;;;0.60;96.40;;;;;;5037486;28;20615;-77
2022/12/16 01:00:17;;;;;;;8.98;4.78;;;0.60;96.40;;;;;;5070786;28;20042;-79
2022/12/16 01:02:44;;;;;;;12.63;5.07;;;0.60;96.30;;;;;;5070986;28;20050;-76
2022/12/16 01:05:12;;;;;;;11.50;5.25;;;0.60;96.30;;;;;;5032933;28;1101474;-77
2022/12/16 01:07:38;;;;;;;14.68;5.50;;;0.60;96.20;;;;;;5066052;28;20139;-74
2022/12/16 01:10:05;;;;;;;11.20;5.03;;;0.60;96.20;;;;;;5052752;28;20041;-75
2022/12/16 01:12:31;;;;;;;12.50;5.15;;;0.60;96.20;;;;;;5034833;28;20393;-76
2022/12/16 01:14:56;;;;;;;10.88;4.95;;;0.60;96.20;;;;;;5051934;28;20124;-76
2022/12/16 01:17:24;;;;;;;12.82;5.93;;;0.60;96.20;;;;;;5052390;28;20068;-75
2022/12/16 01:19:51;;;;;;;11.65;5.22;;;0.60;96.30;;;;;;5051894;28;20043;-75
2022/12/16 01:22:17;;;;;;;9.45;4.57;;;0.60;96.20;;;;;;5052039;28;20040;-74
2022/12/16 01:24:43;;;;;;;10.60;5.40;;;0.60;96.30;;;;;;5058291;28;20040;-75
2022/12/16 01:27:09;;;;;;;10.25;5.05;;;0.50;96.00;;;;;;5072042;28;20504;-75
2022/12/16 01:29:35;;;;;;;9.30;5.03;;;0.50;95.80;;;;;;5072100;28;20058;-76
2022/12/16 01:32:00;;;;;;;11.98;5.63;;;0.40;95.80;;;;;;5055305;28;20048;-76
2022/12/16 01:34:26;;;;;;;9.65;4.63;;;0.40;95.80;;;;;;5072036;28;20097;-77
2022/12/16 01:36:52;;;;;;;10.95;5.43;;;0.40;95.70;;;;;;5072337;28;20400;-75
2022/12/16 01:39:17;;;;;;;10.77;6.82;;;0.40;95.70;;;;;;5071931;28;20040;-76
2022/12/16 01:41:43;;;;;;;8.73;4.97;;;0.30;95.60;;;;;;5071922;28;20036;-76
2022/12/16 01:44:18;;;;;;;11.68;5.32;;;0.30;95.50;;;;;;5052065;28;20073;-76
2022/12/16 01:47:01;;;;;;;9.57;5.78;;;0.30;95.50;;;;;;5035593;28;20029;-75
2022/12/16 01:49:42;;;;;;;13.70;6.70;;;0.30;95.60;;;;;;5052054;28;20044;-74
2022/12/16 01:52:14;;;;;;;10.35;5.38;;;0.30;95.70;;;;;;5051787;28;20048;-77
2022/12/16 01:54:55;;;;;;;10.40;5.22;;;0.30;95.70;;;;;;5051625;28;20041;-74
2022/12/16 01:57:26;;;;;;;8.75;4.85;;;0.20;95.60;;;;;;5053106;28;20045;-75
2022/12/16 01:59:54;;;;;;;11.73;5.43;;;0.20;95.70;;;;;;5055329;28;20033;-75
2022/12/16 02:02:20;;;;;;;10.00;5.57;;;0.20;95.70;;;;;;5072035;28;20050;-76
2022/12/16 02:07:30;;;;;;;9.40;5.05;;;0.20;95.60;;;;;;5071765;28;20055;-74
2022/12/16 02:09:56;;;;;;;10.13;4.95;;;0.20;95.60;;;;;;5071842;28;20044;-77
2022/12/16 02:13:07;;;;;;;8.60;4.03;;;0.20;95.50;;;;;;5071603;28;20040;-75
2022/12/16 02:16:08;;;;;;;7.90;4.35;;;0.20;95.40;;;;;;5069712;28;20102;-75
2022/12/16 02:18:46;;;;;;;13.75;5.25;;;0.20;95.30;;;;;;5071532;28;20040;-75
2022/12/16 02:21:15;;;;;;;8.38;5.07;;;0.20;95.30;;;;;;5071790;28;20041;-74
2022/12/16 02:23:52;;;;;;;12.43;4.63;;;0.20;95.10;;;;;;5071559;28;20123;-76
2022/12/16 02:26:43;;;;;;;10.23;4.85;;;0.10;94.90;;;;;;5075008;28;20052;-75
2022/12/16 02:29:51;;;;;;;7.43;4.22;;;0.10;94.90;;;;;;5075097;28;20048;-76
2022/12/16 02:32:32;;;;;;;9.82;4.53;;;0.10;94.90;;;;;;5047847;28;20077;-74
2022/12/16 02:35:39;;;;;;;11.00;5.72;;;0.20;94.80;;;;;;5055269;28;20120;-76
2022/12/16 02:38:24;;;;;;;10.40;4.72;;;0.20;94.90;;;;;;5055173;28;20389;-75
2022/12/16 02:41:05;;;;;;;9.18;4.88;;;0.20;95.00;;;;;;5055493;28;20385;-75
2022/12/16 02:43:50;;;;;;;7.95;4.03;;;0.20;95.00;;;;;;5054803;28;20048;-76
2022/12/16 02:46:18;;;;;;;10.07;4.00;;;0.30;95.00;;;;;;5038281;28;20051;-75
2022/12/16 02:48:43;;;;;;;10.55;4.40;;;0.30;95.20;;;;;;5055811;28;20500;-75
2022/12/16 02:51:09;;;;;;;9.95;4.68;;;0.40;95.20;;;;;;5075014;28;20131;-77
2022/12/16 02:53:38;;;;;;;11.18;4.35;;;0.40;95.00;;;;;;5074564;28;20076;-75
2022/12/16 02:56:12;;;;;;;8.73;4.50;;;0.40;94.90;;;;;;5074621;28;20481;-74
2022/12/16 02:58:57;;;;;;;7.45;4.15;;;0.40;94.90;;;;;;5074652;28;20044;-74
2022/12/16 03:01:40;;;;;;;8.70;4.40;;;0.40;94.80;;;;;;5074941;28;20033;-75
2022/12/16 03:04:11;;;;;;;8.82;4.20;;;0.40;94.40;;;;;;5074749;28;20076;-76
2022/12/16 03:06:39;;;;;;;6.72;3.78;;;0.40;94.50;;;;;;5054482;28;20115;-75
2022/12/16 03:09:09;;;;;;;10.02;4.07;;;0.40;94.50;;;;;;5054560;28;20039;-75
2022/12/16 03:11:39;;;;;;;10.95;5.50;;;0.40;94.30;;;;;;5054618;28;20045;-77
2022/12/16 03:14:07;;;;;;;6.78;4.22;;;0.40;94.10;;;;;;5054447;28;19921;-75
2022/12/16 03:16:33;;;;;;;8.52;4.45;;;0.30;94.00;;;;;;5037756;28;20041;-74
2022/12/16 03:19:03;;;;;;;12.93;3.90;;;0.30;93.80;;;;;;5054396;28;20102;-74
2022/12/16 03:21:36;;;;;;;7.60;4.20;;;0.20;93.80;;;;;;5058288;28;20041;-74
2022/12/16 03:24:06;;;;;;;10.68;4.78;;;0.20;93.70;;;;;;5074104;28;20143;-74
2022/12/16 03:26:39;;;;;;;9.98;4.45;;;0.20;93.80;;;;;;5074283;28;20400;-74
2022/12/16 03:29:11;;;;;;;8.47;4.20;;;0.20;93.80;;;;;;5057422;28;20036;-75
2022/12/16 03:31:49;;;;;;;7.97;4.40;;;0.20;93.90;;;;;;5057165;28;20279;-74
2022/12/16 03:34:31;;;;;;;9.50;4.45;;;0.10;93.90;;;;;;5073502;28;20501;-74
2022/12/16 03:37:02;;;;;;;7.30;4.15;;;0.10;94.00;;;;;;5072914;28;20062;-74
2022/12/16 03:39:32;;;;;;;10.23;4.15;;;0.10;93.70;;;;;;5062656;28;20124;-76
2022/12/16 03:41:59;;;;;;;11.38;4.90;;;0.10;93.80;;;;;;5037168;28;20040;-76
2022/12/16 03:44:25;;;;;;;7.13;4.13;;;0.10;93.60;;;;;;5037067;28;20068;-77
2022/12/16 03:46:51;;;;;;;10.35;4.32;;;0.00;93.40;;;;;;5037231;28;20084;-74
2022/12/16 03:49:17;;;;;;;8.27;4.47;;;0.00;93.30;;;;;;5037066;28;20044;-76
2022/12/16 03:51:42;;;;;;;10.00;5.60;;;0.00;93.30;;;;;;5053423;28;20049;-75
2022/12/16 03:54:08;;;;;;;9.85;4.60;;;0.00;93.50;;;;;;5053762;28;20048;-76
2022/12/16 03:56:33;;;;;;;9.02;4.78;;;0.00;93.60;;;;;;5053423;28;20040;-74
2022/12/16 03:58:59;;;;;;;11.85;4.88;;;0.00;93.70;;;;;;5053548;28;20377;-74
2022/12/16 04:01:25;;;;;;;9.38;4.45;;;0.00;93.70;;;;;;5053409;28;20055;-75
2022/12/16 04:03:51;;;;;;;7.65;4.35;;;0.00;93.80;;;;;;5053487;28;20396;-76
2022/12/16 04:06:17;;;;;;;10.88;5.25;;;0.10;93.80;;;;;;5053181;28;20057;-74
2022/12/16 04:08:45;;;;;;;10.27;5.63;;;0.10;93.80;;;;;;5053200;28;20053;-74
2022/12/16 04:25:08;;;;;;;7.90;5.60;;;0.20;93.50;;;;;;5052775;28;20060;-74
2022/12/16 04:27:34;;;;;;;9.70;5.28;;;0.20;93.70;;;;;;5052664;28;20087;-75
2022/12/16 04:30:17;;;;;;;12.15;5.63;;;0.20;93.60;;;;;;5019847;28;20080;-74
